Time,TemperatureF,DewpointF,PressureIn,WindDirection,WindDirectionDegrees,WindSpeedMPH,WindSpeedGustMPH,Humidity,HourlyPrecipIn,Conditions,Clouds,dailyrainin,SoftwareType,DateUTC
2013-12-31 00:01:00,5.4,-1.8,30.12,WNW,293,0.0,0.4,72,0.00,,,0.00,WUHU216HW,2013-12-31 05:01:00,
2013-12-31 00:02:00,5.4,-1.8,30.12,WNW,293,0.0,0.4,72,0.00,,,0.00,WUHU216HW,2013-12-31 05:02:00,
2013-12-31 00:03:00,5.4,-1.8,30.12,WNW,293,0.2,0.4,72,0.00,,,0.00,WUHU216HW,2013-12-31 05:03:00,
2013-12-31 00:08:00,5.4,-1.8,30.12,WNW,293,0.0,0.2,72,0.00,,,0.00,WUHU216HW,2013-12-31 05:08:00,
2013-12-31 00:13:00,5.4,-1.8,30.12,WNW,293,0.4,0.4,72,0.00,,,0.00,WUHU216HW,2013-12-31 05:13:00,
2013-12-31 00:18:00,5.4,-1.8,30.12,WNW,293,0.4,0.7,72,0.00,,,0.00,WUHU216HW,2013-12-31 05:18:00,
2013-12-31 00:23:00,5.0,-2.2,30.12,WNW,293,0.4,2.0,72,0.00,,,0.00,WUHU216HW,2013-12-31 05:23:00,
2013-12-31 00:28:00,4.9,-2.2,30.12,WNW,293,0.0,2.0,72,0.00,,,0.00,WUHU216HW,2013-12-31 05:28:00,
2013-12-31 00:33:00,4.9,-2.2,30.12,WNW,293,0.0,0.2,72,0.00,,,0.00,WUHU216HW,2013-12-31 05:33:00,
2013-12-31 00:38:00,4.9,-2.2,30.12,WNW,293,0.0,0.4,72,0.00,,,0.00,WUHU216HW,2013-12-31 05:38:00,
2013-12-31 00:43:00,4.7,-2.4,30.12,WNW,293,0.0,0.4,72,0.00,,,0.00,WUHU216HW,2013-12-31 05:43:00,
2013-12-31 00:48:00,4.7,-2.4,30.12,WNW,293,0.0,0.4,72,0.00,,,0.00,WUHU216HW,2013-12-31 05:48:00,
2013-12-31 00:53:00,4.5,-2.6,30.12,WNW,293,0.0,1.1,72,0.00,,,0.00,WUHU216HW,2013-12-31 05:53:00,
2013-12-31 00:58:00,4.3,-2.5,30.11,WNW,293,0.0,1.1,73,0.00,,,0.00,WUHU216HW,2013-12-31 05:58:00,
2013-12-31 01:03:00,4.0,-2.9,30.11,WNW,293,0.7,0.7,73,0.00,,,0.00,WUHU216HW,2013-12-31 06:03:00,
2013-12-31 01:08:00,3.8,-3.0,30.11,WNW,293,0.0,0.7,73,0.00,,,0.00,WUHU216HW,2013-12-31 06:08:00,
2013-12-31 01:13:00,3.8,-3.0,30.12,WNW,293,0.2,0.7,73,0.00,,,0.00,WUHU216HW,2013-12-31 06:13:00,
2013-12-31 01:18:00,3.8,-3.2,30.12,WNW,293,0.0,0.4,72,0.00,,,0.00,WUHU216HW,2013-12-31 06:18:00,
2013-12-31 01:23:00,3.8,-3.2,30.12,WNW,293,0.0,0.2,72,0.00,,,0.00,WUHU216HW,2013-12-31 06:23:00,
2013-12-31 01:28:00,3.8,-3.2,30.12,WNW,293,0.0,0.2,72,0.00,,,0.00,WUHU216HW,2013-12-31 06:28:00,
2013-12-31 01:33:00,3.6,-3.4,30.11,WNW,293,0.0,0.0,72,0.00,,,0.00,WUHU216HW,2013-12-31 06:33:00,
2013-12-31 01:38:00,3.4,-3.6,30.12,WNW,293,0.0,0.2,72,0.00,,,0.00,WUHU216HW,2013-12-31 06:38:00,
2013-12-31 01:43:00,3.2,-3.8,30.12,WNW,293,0.0,0.2,72,0.00,,,0.00,WUHU216HW,2013-12-31 06:43:00,
2013-12-31 01:48:00,3.1,-4.0,30.12,WNW,293,0.0,0.2,72,0.00,,,0.00,WUHU216HW,2013-12-31 06:48:00,
2013-12-31 01:53:00,2.9,-3.9,30.12,WNW,293,0.3,0.7,73,0.00,,,0.00,WUHU216HW,2013-12-31 06:53:00,
2013-12-31 01:58:00,2.9,-3.9,30.12,WNW,293,0.0,0.7,73,0.00,,,0.00,WUHU216HW,2013-12-31 06:58:00,
2013-12-31 02:03:00,2.7,-4.0,30.11,WNW,293,0.3,0.4,73,0.00,,,0.00,WUHU216HW,2013-12-31 07:03:00,
2013-12-31 02:08:00,2.5,-4.2,30.11,WNW,293,0.2,0.4,73,0.00,,,0.00,WUHU216HW,2013-12-31 07:08:00,
2013-12-31 02:13:00,2.5,-4.2,30.11,WNW,293,0.2,0.2,73,0.00,,,0.00,WUHU216HW,2013-12-31 07:13:00,
2013-12-31 02:18:00,2.5,-4.2,30.12,WNW,293,0.0,0.2,73,0.00,,,0.00,WUHU216HW,2013-12-31 07:18:00,
2013-12-31 02:23:00,2.3,-4.4,30.12,WNW,293,0.0,0.0,73,0.00,,,0.00,WUHU216HW,2013-12-31 07:23:00,
2013-12-31 02:28:00,2.5,-4.2,30.12,WNW,293,0.0,0.0,73,0.00,,,0.00,WUHU216HW,2013-12-31 07:28:00,
2013-12-31 02:33:00,2.5,-4.2,30.12,WNW,293,0.0,0.0,73,0.00,,,0.00,WUHU216HW,2013-12-31 07:33:00,
2013-12-31 02:38:00,2.3,-4.4,30.11,WNW,293,0.2,0.2,73,0.00,,,0.00,WUHU216HW,2013-12-31 07:38:00,
2013-12-31 02:43:00,2.2,-4.6,30.11,WNW,293,0.0,0.2,73,0.00,,,0.00,WUHU216HW,2013-12-31 07:43:00,
2013-12-31 02:48:00,2.2,-4.6,30.11,WNW,293,0.0,0.0,73,0.00,,,0.00,WUHU216HW,2013-12-31 07:48:00,
2013-12-31 02:53:00,2.0,-4.8,30.11,WNW,293,0.0,0.0,73,0.00,,,0.00,WUHU216HW,2013-12-31 07:53:00,
2013-12-31 02:58:00,2.0,-4.8,30.11,WNW,293,0.0,0.0,73,0.00,,,0.00,WUHU216HW,2013-12-31 07:58:00,
2013-12-31 03:03:00,2.2,-4.6,30.11,WNW,293,0.0,0.0,73,0.00,,,0.00,WUHU216HW,2013-12-31 08:03:00,
2013-12-31 03:08:00,2.0,-4.8,30.10,WNW,293,0.0,0.0,73,0.00,,,0.00,WUHU216HW,2013-12-31 08:08:00,
2013-12-31 03:13:00,1.8,-4.7,30.11,WNW,293,0.2,0.2,74,0.00,,,0.00,WUHU216HW,2013-12-31 08:13:00,
2013-12-31 03:18:00,1.8,-4.7,30.10,WNW,293,0.0,0.2,74,0.00,,,0.00,WUHU216HW,2013-12-31 08:18:00,
2013-12-31 03:23:00,1.8,-4.7,30.10,WNW,293,0.0,0.0,74,0.00,,,0.00,WUHU216HW,2013-12-31 08:23:00,
2013-12-31 03:28:00,1.8,-4.7,30.10,WNW,293,0.2,0.4,74,0.00,,,0.00,WUHU216HW,2013-12-31 08:28:00,
2013-12-31 03:33:00,1.6,-4.9,30.10,WNW,293,0.0,0.4,74,0.00,,,0.00,WUHU216HW,2013-12-31 08:33:00,
2013-12-31 03:38:00,1.6,-4.9,30.10,WNW,293,0.3,0.4,74,0.00,,,0.00,WUHU216HW,2013-12-31 08:38:00,
2013-12-31 03:43:00,1.4,-5.0,30.09,WNW,293,0.4,0.4,74,0.00,,,0.00,WUHU216HW,2013-12-31 08:43:00,
2013-12-31 03:48:00,1.4,-5.0,30.10,WNW,293,0.0,0.4,74,0.00,,,0.00,WUHU216HW,2013-12-31 08:48:00,
2013-12-31 03:53:00,1.3,-5.2,30.09,WNW,293,0.0,0.4,74,0.00,,,0.00,WUHU216HW,2013-12-31 08:53:00,
2013-12-31 03:58:00,1.4,-5.0,30.09,WNW,293,0.0,0.2,74,0.00,,,0.00,WUHU216HW,2013-12-31 08:58:00,
2013-12-31 04:03:00,1.4,-5.0,30.09,WNW,293,0.0,0.0,74,0.00,,,0.00,WUHU216HW,2013-12-31 09:03:00,
2013-12-31 04:08:00,1.6,-4.9,30.09,WNW,293,0.0,0.0,74,0.00,,,0.00,WUHU216HW,2013-12-31 09:08:00,
2013-12-31 04:13:00,1.4,-5.0,30.08,WNW,293,0.0,0.0,74,0.00,,,0.00,WUHU216HW,2013-12-31 09:13:00,
2013-12-31 04:18:00,1.1,-5.4,30.08,WNW,293,0.3,0.4,74,0.00,,,0.00,WUHU216HW,2013-12-31 09:18:00,
2013-12-31 04:23:00,1.1,-5.1,30.08,WNW,293,0.3,0.4,75,0.00,,,0.00,WUHU216HW,2013-12-31 09:23:00,
2013-12-31 04:28:00,0.9,-5.3,30.08,WNW,293,0.0,0.4,75,0.00,,,0.00,WUHU216HW,2013-12-31 09:28:00,
2013-12-31 04:33:00,0.9,-5.6,30.08,WNW,293,0.0,0.2,74,0.00,,,0.00,WUHU216HW,2013-12-31 09:33:00,
2013-12-31 04:38:00,1.1,-5.4,30.09,WNW,293,0.2,0.2,74,0.00,,,0.00,WUHU216HW,2013-12-31 09:38:00,
2013-12-31 04:43:00,1.1,-5.4,30.08,WNW,293,0.0,0.2,74,0.00,,,0.00,WUHU216HW,2013-12-31 09:43:00,
2013-12-31 04:48:00,1.1,-5.4,30.08,WNW,293,0.0,0.0,74,0.00,,,0.00,WUHU216HW,2013-12-31 09:48:00,
2013-12-31 04:53:00,1.3,-5.2,30.08,WNW,293,0.0,0.0,74,0.00,,,0.00,WUHU216HW,2013-12-31 09:53:00,
2013-12-31 04:58:00,1.3,-5.2,30.08,WNW,293,0.0,0.0,74,0.00,,,0.00,WUHU216HW,2013-12-31 09:58:00,
2013-12-31 05:03:00,1.1,-5.4,30.08,WNW,293,0.0,0.0,74,0.00,,,0.00,WUHU216HW,2013-12-31 10:03:00,
2013-12-31 05:08:00,1.1,-5.4,30.08,WNW,293,0.0,0.0,74,0.00,,,0.00,WUHU216HW,2013-12-31 10:08:00,
2013-12-31 05:13:00,1.1,-5.4,30.08,WNW,293,0.0,0.0,74,0.00,,,0.00,WUHU216HW,2013-12-31 10:13:00,
2013-12-31 05:18:00,1.1,-5.4,30.07,WNW,293,0.0,0.0,74,0.00,,,0.00,WUHU216HW,2013-12-31 10:18:00,
2013-12-31 05:23:00,1.1,-5.4,30.07,WNW,293,0.0,0.0,74,0.00,,,0.00,WUHU216HW,2013-12-31 10:23:00,
2013-12-31 05:28:00,1.1,-5.4,30.07,WNW,293,0.0,0.0,74,0.00,,,0.00,WUHU216HW,2013-12-31 10:28:00,
2013-12-31 05:33:00,1.1,-5.4,30.07,WNW,293,0.0,0.2,74,0.00,,,0.00,WUHU216HW,2013-12-31 10:33:00,
2013-12-31 05:38:00,1.1,-5.4,30.07,WNW,293,0.0,0.2,74,0.00,,,0.00,WUHU216HW,2013-12-31 10:38:00,
2013-12-31 05:43:00,1.3,-5.2,30.07,WNW,293,0.0,0.0,74,0.00,,,0.00,WUHU216HW,2013-12-31 10:43:00,
2013-12-31 05:48:00,1.3,-5.2,30.07,WNW,293,0.0,0.0,74,0.00,,,0.00,WUHU216HW,2013-12-31 10:48:00,
2013-12-31 05:53:00,1.3,-5.2,30.07,WNW,293,0.0,0.0,74,0.00,,,0.00,WUHU216HW,2013-12-31 10:53:00,
2013-12-31 05:58:00,1.4,-5.0,30.07,WNW,293,0.0,0.0,74,0.00,,,0.00,WUHU216HW,2013-12-31 10:58:00,
2013-12-31 06:03:00,1.4,-5.0,30.07,WNW,293,0.0,0.0,74,0.00,,,0.00,WUHU216HW,2013-12-31 11:03:00,
2013-12-31 06:08:00,1.4,-5.0,30.07,WNW,293,0.0,0.0,74,0.00,,,0.00,WUHU216HW,2013-12-31 11:08:00,
2013-12-31 06:13:00,1.3,-5.2,30.07,WNW,293,0.0,0.0,74,0.00,,,0.00,WUHU216HW,2013-12-31 11:13:00,
2013-12-31 06:18:00,1.3,-5.2,30.06,WNW,293,0.0,0.0,74,0.00,,,0.00,WUHU216HW,2013-12-31 11:18:00,
2013-12-31 06:23:00,1.1,-5.4,30.06,WNW,293,0.0,0.0,74,0.00,,,0.00,WUHU216HW,2013-12-31 11:23:00,
2013-12-31 06:28:00,1.1,-5.1,30.06,WNW,293,0.0,0.0,75,0.00,,,0.00,WUHU216HW,2013-12-31 11:28:00,
2013-12-31 06:33:00,1.1,-5.4,30.06,WNW,293,0.0,0.0,74,0.00,,,0.00,WUHU216HW,2013-12-31 11:33:00,
2013-12-31 06:38:00,1.1,-5.4,30.06,WNW,293,0.0,0.0,74,0.00,,,0.00,WUHU216HW,2013-12-31 11:38:00,
2013-12-31 06:43:00,1.1,-5.4,30.06,WNW,293,0.0,0.0,74,0.00,,,0.00,WUHU216HW,2013-12-31 11:43:00,
2013-12-31 06:48:00,0.9,-5.3,30.06,WNW,293,0.0,0.0,75,0.00,,,0.00,WUHU216HW,2013-12-31 11:48:00,
2013-12-31 06:53:00,0.9,-5.3,30.06,WNW,293,0.0,0.0,75,0.00,,,0.00,WUHU216HW,2013-12-31 11:53:00,
2013-12-31 06:58:00,0.7,-5.5,30.06,WNW,293,0.0,0.0,75,0.00,,,0.00,WUHU216HW,2013-12-31 11:58:00,
2013-12-31 07:03:00,0.4,-5.7,30.06,WNW,293,0.0,0.0,75,0.00,,,0.00,WUHU216HW,2013-12-31 12:03:00,
2013-12-31 07:08:00,0.4,-5.7,30.06,WNW,293,0.0,0.0,75,0.00,,,0.00,WUHU216HW,2013-12-31 12:08:00,
2013-12-31 07:13:00,0.4,-5.7,30.06,WNW,293,0.0,0.0,75,0.00,,,0.00,WUHU216HW,2013-12-31 12:13:00,
2013-12-31 07:18:00,0.7,-5.5,30.06,WNW,293,0.0,0.0,75,0.00,,,0.00,WUHU216HW,2013-12-31 12:18:00,
2013-12-31 07:23:00,0.7,-5.5,30.06,WNW,293,0.0,0.0,75,0.00,,,0.00,WUHU216HW,2013-12-31 12:23:00,
2013-12-31 07:28:00,0.9,-5.3,30.06,WNW,293,0.0,0.0,75,0.00,,,0.00,WUHU216HW,2013-12-31 12:28:00,
2013-12-31 07:33:00,1.1,-5.1,30.06,WNW,293,0.2,0.4,75,0.00,,,0.00,WUHU216HW,2013-12-31 12:33:00,
2013-12-31 07:38:00,1.3,-4.9,30.06,WNW,293,0.4,0.4,75,0.00,,,0.00,WUHU216HW,2013-12-31 12:38:00,
2013-12-31 07:43:00,1.4,-4.8,30.06,WNW,293,0.5,1.1,75,0.00,,,0.00,WUHU216HW,2013-12-31 12:43:00,
2013-12-31 07:48:00,1.4,-4.8,30.06,WNW,293,0.3,1.1,75,0.00,,,0.00,WUHU216HW,2013-12-31 12:48:00,
2013-12-31 07:53:00,1.4,-4.8,30.06,WNW,293,0.3,0.4,75,0.00,,,0.00,WUHU216HW,2013-12-31 12:53:00,
2013-12-31 07:58:00,1.3,-4.9,30.06,WNW,293,0.4,0.7,75,0.00,,,0.00,WUHU216HW,2013-12-31 12:58:00,
2013-12-31 08:03:00,1.1,-5.1,30.06,WNW,293,0.6,0.9,75,0.00,,,0.00,WUHU216HW,2013-12-31 13:03:00,
2013-12-31 08:08:00,0.9,-5.3,30.05,WNW,293,0.0,0.9,75,0.00,,,0.00,WUHU216HW,2013-12-31 13:08:00,
2013-12-31 08:13:00,0.9,-5.3,30.05,WNW,293,0.2,0.2,75,0.00,,,0.00,WUHU216HW,2013-12-31 13:13:00,
2013-12-31 08:18:00,0.9,-5.3,30.05,WNW,293,0.0,0.2,75,0.00,,,0.00,WUHU216HW,2013-12-31 13:18:00,
2013-12-31 08:23:00,1.3,-4.9,30.05,WNW,293,0.0,0.0,75,0.00,,,0.00,WUHU216HW,2013-12-31 13:23:00,
2013-12-31 08:28:00,1.6,-4.6,30.06,WNW,293,0.2,0.2,75,0.00,,,0.00,WUHU216HW,2013-12-31 13:28:00,
2013-12-31 08:33:00,1.8,-4.4,30.06,WNW,293,0.2,0.9,75,0.00,,,0.00,WUHU216HW,2013-12-31 13:33:00,
2013-12-31 08:38:00,1.8,-4.4,30.06,WNW,293,0.2,0.9,75,0.00,,,0.00,WUHU216HW,2013-12-31 13:38:00,
2013-12-31 08:43:00,1.8,-4.4,30.06,WNW,293,0.2,1.1,75,0.00,,,0.00,WUHU216HW,2013-12-31 13:43:00,
2013-12-31 08:48:00,1.8,-4.4,30.06,WNW,293,0.4,1.1,75,0.00,,,0.00,WUHU216HW,2013-12-31 13:48:00,
2013-12-31 08:53:00,1.8,-4.7,30.06,WNW,293,0.3,0.9,74,0.00,,,0.00,WUHU216HW,2013-12-31 13:53:00,
2013-12-31 08:58:00,1.6,-4.6,30.06,WNW,293,0.0,0.7,75,0.00,,,0.00,WUHU216HW,2013-12-31 13:58:00,
2013-12-31 09:03:00,1.6,-4.6,30.06,WNW,293,0.9,0.9,75,0.00,,,0.00,WUHU216HW,2013-12-31 14:03:00,
2013-12-31 09:08:00,1.8,-4.4,30.06,WNW,293,0.6,1.1,75,0.00,,,0.00,WUHU216HW,2013-12-31 14:08:00,
2013-12-31 09:13:00,2.2,-4.3,30.06,WNW,293,0.4,1.6,74,0.00,,,0.00,WUHU216HW,2013-12-31 14:13:00,
2013-12-31 09:18:00,2.5,-4.0,30.06,WNW,293,0.3,1.6,74,0.00,,,0.00,WUHU216HW,2013-12-31 14:18:00,
2013-12-31 09:23:00,2.5,-4.0,30.06,WNW,293,1.1,1.6,74,0.00,,,0.00,WUHU216HW,2013-12-31 14:23:00,
2013-12-31 09:28:00,2.5,-4.2,30.07,WNW,293,1.1,1.8,73,0.00,,,0.00,WUHU216HW,2013-12-31 14:28:00,
2013-12-31 09:33:00,2.7,-4.0,30.07,WNW,293,0.8,1.8,73,0.00,,,0.00,WUHU216HW,2013-12-31 14:33:00,
2013-12-31 09:38:00,3.1,-4.0,30.06,WNW,293,1.0,2.0,72,0.00,,,0.00,WUHU216HW,2013-12-31 14:38:00,
2013-12-31 09:43:00,3.1,-4.0,30.06,WNW,293,1.1,2.0,72,0.00,,,0.00,WUHU216HW,2013-12-31 14:43:00,
2013-12-31 09:48:00,3.2,-3.8,30.06,WNW,293,0.4,1.8,72,0.00,,,0.00,WUHU216HW,2013-12-31 14:48:00,
2013-12-31 09:53:00,3.6,-3.4,30.05,WNW,293,0.0,1.1,72,0.00,,,0.00,WUHU216HW,2013-12-31 14:53:00,
2013-12-31 09:58:00,4.0,-3.1,30.05,WNW,293,0.7,0.9,72,0.00,,,0.00,WUHU216HW,2013-12-31 14:58:00,
2013-12-31 10:03:00,4.5,-2.6,30.05,WNW,293,0.4,1.1,72,0.00,,,0.00,WUHU216HW,2013-12-31 15:03:00,
2013-12-31 10:08:00,4.7,-2.4,30.05,WNW,293,0.5,1.1,72,0.00,,,0.00,WUHU216HW,2013-12-31 15:08:00,
2013-12-31 10:13:00,4.7,-2.4,30.05,WNW,293,0.4,1.1,72,0.00,,,0.00,WUHU216HW,2013-12-31 15:13:00,
2013-12-31 10:18:00,4.9,-2.6,30.05,WNW,293,0.4,1.1,71,0.00,,,0.00,WUHU216HW,2013-12-31 15:18:00,
2013-12-31 10:23:00,4.9,-2.6,30.04,WNW,293,0.3,0.4,71,0.00,,,0.00,WUHU216HW,2013-12-31 15:23:00,
2013-12-31 10:28:00,5.0,-2.4,30.04,WNW,293,0.9,0.9,71,0.00,,,0.00,WUHU216HW,2013-12-31 15:28:00,
2013-12-31 10:33:00,5.2,-2.5,30.04,WNW,293,0.3,1.1,70,0.00,,,0.00,WUHU216HW,2013-12-31 15:33:00,
2013-12-31 10:38:00,5.2,-2.5,30.04,WNW,293,0.3,1.1,70,0.00,,,0.00,WUHU216HW,2013-12-31 15:38:00,
2013-12-31 10:43:00,5.2,-2.5,30.04,WNW,293,0.4,0.4,70,0.00,,,0.00,WUHU216HW,2013-12-31 15:43:00,
2013-12-31 10:48:00,5.2,-2.5,30.03,WNW,293,0.4,0.9,70,0.00,,,0.00,WUHU216HW,2013-12-31 15:48:00,
2013-12-31 10:53:00,5.2,-2.9,30.02,WNW,293,0.3,0.9,69,0.00,,,0.00,WUHU216HW,2013-12-31 15:53:00,
2013-12-31 10:58:00,5.4,-2.7,30.02,WNW,293,0.3,0.7,69,0.00,,,0.00,WUHU216HW,2013-12-31 15:58:00,
2013-12-31 11:03:00,5.6,-2.5,30.02,WNW,293,0.4,0.4,69,0.00,,,0.00,WUHU216HW,2013-12-31 16:03:00,
2013-12-31 11:08:00,6.1,-1.6,30.02,WNW,293,0.7,0.7,70,0.00,,,0.00,WUHU216HW,2013-12-31 16:08:00,
2013-12-31 11:13:00,6.1,-1.6,30.02,WNW,293,0.7,1.1,70,0.00,,,0.00,WUHU216HW,2013-12-31 16:13:00,
2013-12-31 11:18:00,6.1,-1.6,30.01,WNW,293,0.4,1.1,70,0.00,,,0.00,WUHU216HW,2013-12-31 16:18:00,
2013-12-31 11:23:00,6.5,-1.6,30.02,WNW,293,1.1,1.1,69,0.00,,,0.00,WUHU216HW,2013-12-31 16:23:00,
2013-12-31 11:28:00,6.7,-1.7,30.01,WNW,293,0.7,1.3,68,0.00,,,0.00,WUHU216HW,2013-12-31 16:28:00,
2013-12-31 11:33:00,6.8,-1.5,30.01,WNW,293,0.4,1.3,68,0.00,,,0.00,WUHU216HW,2013-12-31 16:33:00,
2013-12-31 11:38:00,7.6,-0.8,30.00,WNW,293,0.7,1.3,68,0.00,,,0.00,WUHU216HW,2013-12-31 16:38:00,
2013-12-31 11:43:00,7.7,-0.6,30.00,WNW,293,0.2,2.7,68,0.00,,,0.00,WUHU216HW,2013-12-31 16:43:00,
2013-12-31 11:48:00,7.7,-0.6,30.00,WNW,293,0.7,2.7,68,0.00,,,0.00,WUHU216HW,2013-12-31 16:48:00,
2013-12-31 11:53:00,7.7,-1.0,30.00,WNW,293,0.0,0.9,67,0.00,,,0.00,WUHU216HW,2013-12-31 16:53:00,
2013-12-31 11:58:00,7.9,-1.2,30.00,WNW,293,1.3,1.3,66,0.00,,,0.00,WUHU216HW,2013-12-31 16:58:00,
2013-12-31 12:03:00,8.1,-0.6,29.99,WNW,293,0.5,1.8,67,0.00,,,0.00,WUHU216HW,2013-12-31 17:03:00,
2013-12-31 12:08:00,8.3,-0.2,29.99,WNW,293,0.2,1.8,68,0.00,,,0.00,WUHU216HW,2013-12-31 17:08:00,
2013-12-31 12:13:00,8.6,0.2,29.99,WNW,293,0.4,0.7,68,0.00,,,0.00,WUHU216HW,2013-12-31 17:13:00,
2013-12-31 12:18:00,8.8,0.0,29.99,WNW,293,1.6,1.6,67,0.00,,,0.00,WUHU216HW,2013-12-31 17:18:00,
2013-12-31 12:23:00,8.8,0.4,29.99,WNW,293,1.3,1.8,68,0.00,,,0.00,WUHU216HW,2013-12-31 17:23:00,
2013-12-31 12:28:00,8.8,0.0,29.98,WNW,293,1.1,1.8,67,0.00,,,0.00,WUHU216HW,2013-12-31 17:28:00,
2013-12-31 12:33:00,9.4,0.9,29.98,WNW,293,0.8,1.6,68,0.00,,,0.00,WUHU216HW,2013-12-31 17:33:00,
2013-12-31 12:38:00,9.7,1.2,29.98,WNW,293,1.3,2.5,68,0.00,,,0.00,WUHU216HW,2013-12-31 17:38:00,
2013-12-31 12:43:00,9.9,1.4,29.97,WNW,293,2.2,2.5,68,0.00,,,0.00,WUHU216HW,2013-12-31 17:43:00,
2013-12-31 12:48:00,10.3,1.7,29.97,WNW,293,0.4,2.5,68,0.00,,,0.00,WUHU216HW,2013-12-31 17:48:00,
2013-12-31 12:53:00,10.8,2.3,29.97,WNW,293,1.3,2.5,68,0.00,,,0.00,WUHU216HW,2013-12-31 17:53:00,
2013-12-31 12:58:00,10.6,2.1,29.96,WNW,293,1.1,2.0,68,0.00,,,0.00,WUHU216HW,2013-12-31 17:58:00,
2013-12-31 13:03:00,10.8,2.3,29.96,WNW,293,1.6,2.7,68,0.00,,,0.00,WUHU216HW,2013-12-31 18:03:00,
2013-12-31 13:08:00,11.2,2.6,29.96,WNW,293,0.9,2.7,68,0.00,,,0.00,WUHU216HW,2013-12-31 18:08:00,
2013-12-31 13:13:00,11.0,2.4,29.96,WNW,293,0.6,1.1,68,0.00,,,0.00,WUHU216HW,2013-12-31 18:13:00,
2013-12-31 13:18:00,10.4,1.5,29.96,WNW,293,0.4,1.1,67,0.00,,,0.00,WUHU216HW,2013-12-31 18:18:00,
2013-12-31 13:23:00,10.4,1.9,29.96,WNW,293,0.8,1.1,68,0.00,,,0.00,WUHU216HW,2013-12-31 18:23:00,
2013-12-31 13:28:00,10.4,1.5,29.96,WNW,293,0.9,1.6,67,0.00,,,0.00,WUHU216HW,2013-12-31 18:28:00,
2013-12-31 13:33:00,10.3,1.4,29.96,WNW,293,1.6,1.6,67,0.00,,,0.00,WUHU216HW,2013-12-31 18:33:00,
2013-12-31 13:38:00,10.6,1.7,29.96,WNW,293,1.1,1.6,67,0.00,,,0.00,WUHU216HW,2013-12-31 18:38:00,
2013-12-31 13:43:00,10.4,1.5,29.96,WNW,293,0.7,1.6,67,0.00,,,0.00,WUHU216HW,2013-12-31 18:43:00,
2013-12-31 13:48:00,10.8,1.9,29.96,WNW,293,0.5,1.3,67,0.00,,,0.00,WUHU216HW,2013-12-31 18:48:00,
2013-12-31 13:53:00,11.2,2.6,29.96,WNW,293,0.9,1.3,68,0.00,,,0.00,WUHU216HW,2013-12-31 18:53:00,
2013-12-31 13:58:00,11.2,2.3,29.96,WNW,293,0.5,1.3,67,0.00,,,0.00,WUHU216HW,2013-12-31 18:58:00,
2013-12-31 14:03:00,11.3,2.4,29.96,WNW,293,0.4,2.5,67,0.00,,,0.00,WUHU216HW,2013-12-31 19:03:00,
2013-12-31 14:08:00,11.5,2.6,29.96,WNW,293,0.4,2.5,67,0.00,,,0.00,WUHU216HW,2013-12-31 19:08:00,
2013-12-31 14:13:00,11.5,2.6,29.96,WNW,293,0.8,0.9,67,0.00,,,0.00,WUHU216HW,2013-12-31 19:13:00,
2013-12-31 14:18:00,11.2,2.3,29.96,WNW,293,0.8,1.1,67,0.00,,,0.00,WUHU216HW,2013-12-31 19:18:00,
2013-12-31 14:23:00,11.0,2.1,29.96,WNW,293,0.6,1.1,67,0.00,,,0.00,WUHU216HW,2013-12-31 19:23:00,
2013-12-31 14:28:00,10.8,1.9,29.96,WNW,293,0.4,0.9,67,0.00,,,0.00,WUHU216HW,2013-12-31 19:28:00,
2013-12-31 14:33:00,10.8,1.9,29.96,WNW,293,0.4,0.7,67,0.00,,,0.00,WUHU216HW,2013-12-31 19:33:00,
2013-12-31 14:38:00,10.8,2.3,29.96,WNW,293,0.4,0.7,68,0.00,,,0.00,WUHU216HW,2013-12-31 19:38:00,
2013-12-31 14:43:00,11.2,2.6,29.96,WNW,293,0.3,0.4,68,0.00,,,0.00,WUHU216HW,2013-12-31 19:43:00,
2013-12-31 14:48:00,11.2,2.6,29.96,WNW,293,0.4,0.4,68,0.00,,,0.00,WUHU216HW,2013-12-31 19:48:00,
2013-12-31 14:53:00,11.0,2.4,29.96,WNW,293,0.2,0.7,68,0.00,,,0.00,WUHU216HW,2013-12-31 19:53:00,
2013-12-31 14:58:00,11.0,2.4,29.96,WNW,293,0.4,0.7,68,0.00,,,0.00,WUHU216HW,2013-12-31 19:58:00,
2013-12-31 15:03:00,11.2,2.9,29.96,WNW,293,0.4,0.4,69,0.00,,,0.00,WUHU216HW,2013-12-31 20:03:00,
2013-12-31 15:08:00,11.3,3.1,29.97,WNW,293,0.3,0.4,69,0.00,,,0.00,WUHU216HW,2013-12-31 20:08:00,
2013-12-31 15:13:00,11.5,3.2,29.97,WNW,293,0.4,0.4,69,0.00,,,0.00,WUHU216HW,2013-12-31 20:13:00,
2013-12-31 15:18:00,11.7,3.4,29.97,WNW,293,0.2,0.4,69,0.00,,,0.00,WUHU216HW,2013-12-31 20:18:00,
2013-12-31 15:23:00,11.7,3.8,29.97,WNW,293,0.0,0.2,70,0.00,,,0.00,WUHU216HW,2013-12-31 20:23:00,
2013-12-31 15:28:00,11.5,3.6,29.97,WNW,293,0.3,0.4,70,0.00,,,0.00,WUHU216HW,2013-12-31 20:28:00,
2013-12-31 15:33:00,11.2,3.2,29.97,WNW,293,0.0,0.4,70,0.00,,,0.00,WUHU216HW,2013-12-31 20:33:00,
2013-12-31 15:38:00,11.3,3.4,29.97,WNW,293,0.2,0.9,70,0.00,,,0.00,WUHU216HW,2013-12-31 20:38:00,
2013-12-31 15:43:00,11.5,3.6,29.97,WNW,293,0.5,0.9,70,0.00,,,0.00,WUHU216HW,2013-12-31 20:43:00,
2013-12-31 15:48:00,11.2,3.5,29.97,WNW,293,0.4,0.7,71,0.00,,,0.00,WUHU216HW,2013-12-31 20:48:00,
2013-12-31 15:53:00,11.2,3.5,29.97,WNW,293,0.0,0.4,71,0.00,,,0.00,WUHU216HW,2013-12-31 20:53:00,
2013-12-31 15:58:00,11.2,3.5,29.98,WNW,293,0.3,0.4,71,0.00,,,0.00,WUHU216HW,2013-12-31 20:58:00,
2013-12-31 16:03:00,11.2,3.5,29.98,WNW,293,0.3,0.4,71,0.00,,,0.00,WUHU216HW,2013-12-31 21:03:00,
2013-12-31 16:08:00,11.0,3.3,29.98,WNW,293,0.0,0.4,71,0.00,,,0.00,WUHU216HW,2013-12-31 21:08:00,
2013-12-31 16:13:00,10.8,3.4,29.97,WNW,293,0.4,0.4,72,0.00,,,0.00,WUHU216HW,2013-12-31 21:13:00,
2013-12-31 16:18:00,10.8,3.4,29.97,WNW,293,0.0,0.4,72,0.00,,,0.00,WUHU216HW,2013-12-31 21:18:00,
2013-12-31 16:23:00,10.6,3.2,29.97,WNW,293,0.0,0.2,72,0.00,,,0.00,WUHU216HW,2013-12-31 21:23:00,
2013-12-31 16:28:00,10.4,3.4,29.97,WNW,293,0.0,0.2,73,0.00,,,0.00,WUHU216HW,2013-12-31 21:28:00,
2013-12-31 16:33:00,10.1,3.1,29.97,WNW,293,0.0,0.2,73,0.00,,,0.00,WUHU216HW,2013-12-31 21:33:00,
2013-12-31 16:38:00,10.1,3.1,29.98,WNW,293,0.2,0.2,73,0.00,,,0.00,WUHU216HW,2013-12-31 21:38:00,
2013-12-31 16:43:00,9.9,3.2,29.98,WNW,293,0.0,0.2,74,0.00,,,0.00,WUHU216HW,2013-12-31 21:43:00,
2013-12-31 16:48:00,10.1,3.1,29.98,WNW,293,0.0,0.2,73,0.00,,,0.00,WUHU216HW,2013-12-31 21:48:00,
2013-12-31 16:53:00,10.1,3.3,29.98,WNW,293,0.4,0.4,74,0.00,,,0.00,WUHU216HW,2013-12-31 21:53:00,
2013-12-31 16:58:00,9.9,3.2,29.99,WNW,293,0.2,0.4,74,0.00,,,0.00,WUHU216HW,2013-12-31 21:58:00,
2013-12-31 17:03:00,9.9,2.9,29.99,WNW,293,0.2,0.7,73,0.00,,,0.00,WUHU216HW,2013-12-31 22:03:00,
2013-12-31 17:08:00,9.7,2.7,29.98,WNW,293,0.6,0.9,73,0.00,,,0.00,WUHU216HW,2013-12-31 22:08:00,
2013-12-31 17:13:00,9.7,3.1,29.99,WNW,293,1.1,1.1,74,0.00,,,0.00,WUHU216HW,2013-12-31 22:13:00,
2013-12-31 17:18:00,9.9,2.9,29.99,WNW,293,0.4,1.1,73,0.00,,,0.00,WUHU216HW,2013-12-31 22:18:00,
2013-12-31 17:23:00,9.9,2.9,29.99,WNW,293,0.5,0.9,73,0.00,,,0.00,WUHU216HW,2013-12-31 22:23:00,
2013-12-31 17:28:00,9.9,2.9,29.99,WNW,293,0.4,0.7,73,0.00,,,0.00,WUHU216HW,2013-12-31 22:28:00,
2013-12-31 17:33:00,9.9,2.9,29.99,WNW,293,0.4,0.9,73,0.00,,,0.00,WUHU216HW,2013-12-31 22:33:00,
2013-12-31 17:38:00,9.9,2.9,29.99,WNW,293,0.0,0.9,73,0.00,,,0.00,WUHU216HW,2013-12-31 22:38:00,
2013-12-31 17:43:00,9.9,2.9,29.99,WNW,293,0.0,0.4,73,0.00,,,0.00,WUHU216HW,2013-12-31 22:43:00,
2013-12-31 17:48:00,9.9,2.9,29.99,WNW,293,0.7,1.1,73,0.00,,,0.00,WUHU216HW,2013-12-31 22:48:00,
2013-12-31 17:53:00,9.7,2.7,29.99,WNW,293,0.0,1.1,73,0.00,,,0.00,WUHU216HW,2013-12-31 22:53:00,
2013-12-31 17:58:00,9.7,2.7,29.99,WNW,293,0.2,0.2,73,0.00,,,0.00,WUHU216HW,2013-12-31 22:58:00,
2013-12-31 18:03:00,9.7,2.7,29.99,WNW,293,0.4,0.4,73,0.00,,,0.00,WUHU216HW,2013-12-31 23:03:00,
2013-12-31 18:08:00,9.4,2.4,29.99,WNW,293,0.7,0.9,73,0.00,,,0.00,WUHU216HW,2013-12-31 23:08:00,
2013-12-31 18:13:00,9.2,2.5,29.99,WNW,293,0.0,0.9,74,0.00,,,0.00,WUHU216HW,2013-12-31 23:13:00,
2013-12-31 18:18:00,9.2,2.5,29.99,WNW,293,0.5,0.9,74,0.00,,,0.00,WUHU216HW,2013-12-31 23:18:00,
2013-12-31 18:23:00,9.2,2.3,29.99,WNW,293,0.2,0.9,73,0.00,,,0.00,WUHU216HW,2013-12-31 23:23:00,
2013-12-31 18:28:00,9.4,2.7,29.99,WNW,293,0.3,0.4,74,0.00,,,0.00,WUHU216HW,2013-12-31 23:28:00,
2013-12-31 18:33:00,9.4,2.4,29.99,WNW,293,0.3,0.4,73,0.00,,,0.00,WUHU216HW,2013-12-31 23:33:00,
2013-12-31 18:38:00,9.4,2.7,29.99,WNW,293,0.4,1.1,74,0.00,,,0.00,WUHU216HW,2013-12-31 23:38:00,
2013-12-31 18:43:00,9.2,2.5,29.99,WNW,293,0.9,1.1,74,0.00,,,0.00,WUHU216HW,2013-12-31 23:43:00,
2013-12-31 18:48:00,9.2,2.3,29.99,WNW,293,0.3,1.1,73,0.00,,,0.00,WUHU216HW,2013-12-31 23:48:00,
2013-12-31 18:53:00,9.2,2.3,29.99,WNW,293,0.4,0.7,73,0.00,,,0.00,WUHU216HW,2013-12-31 23:53:00,
2013-12-31 18:58:00,9.2,2.3,29.99,WNW,293,0.0,0.7,73,0.00,,,0.00,WUHU216HW,2013-12-31 23:58:00,
2013-12-31 19:03:00,9.4,2.4,29.99,WNW,293,0.0,0.4,73,0.00,,,0.00,WUHU216HW,2014-01-01 00:03:00,
2013-12-31 19:08:00,9.4,2.4,30.00,WNW,293,0.4,0.4,73,0.00,,,0.00,WUHU216HW,2014-01-01 00:08:00,
2013-12-31 19:13:00,9.7,2.7,29.99,WNW,293,0.4,0.4,73,0.00,,,0.00,WUHU216HW,2014-01-01 00:13:00,
2013-12-31 19:18:00,9.7,2.7,30.00,WNW,293,0.0,0.4,73,0.00,,,0.00,WUHU216HW,2014-01-01 00:18:00,
2013-12-31 19:23:00,9.7,2.7,30.00,WNW,293,0.4,0.4,73,0.00,,,0.00,WUHU216HW,2014-01-01 00:23:00,
2013-12-31 19:28:00,9.9,2.9,30.00,WNW,293,0.2,0.7,73,0.00,,,0.00,WUHU216HW,2014-01-01 00:28:00,
2013-12-31 19:33:00,10.1,3.1,30.00,WNW,293,0.9,1.1,73,0.00,,,0.00,WUHU216HW,2014-01-01 00:33:00,
2013-12-31 19:38:00,9.9,2.9,30.00,WNW,293,1.1,1.1,73,0.00,,,0.00,WUHU216HW,2014-01-01 00:38:00,
2013-12-31 19:43:00,9.9,2.9,30.00,WNW,293,1.0,1.1,73,0.00,,,0.00,WUHU216HW,2014-01-01 00:43:00,
2013-12-31 19:48:00,9.9,2.9,30.01,WNW,293,1.0,1.6,73,0.00,,,0.00,WUHU216HW,2014-01-01 00:48:00,
2013-12-31 19:53:00,9.9,2.9,30.01,WNW,293,1.0,1.6,73,0.00,,,0.00,WUHU216HW,2014-01-01 00:53:00,
2013-12-31 19:58:00,9.9,2.9,30.01,WNW,293,0.4,1.3,73,0.00,,,0.00,WUHU216HW,2014-01-01 00:58:00,
2013-12-31 20:03:00,9.9,2.9,30.01,WNW,293,0.3,0.9,73,0.00,,,0.00,WUHU216HW,2014-01-01 01:03:00,
2013-12-31 20:08:00,9.9,2.9,30.01,WNW,293,0.3,0.4,73,0.00,,,0.00,WUHU216HW,2014-01-01 01:08:00,
2013-12-31 20:13:00,10.1,3.1,30.01,WNW,293,0.7,0.7,73,0.00,,,0.00,WUHU216HW,2014-01-01 01:13:00,
2013-12-31 20:18:00,10.1,3.1,30.02,WNW,293,0.3,0.7,73,0.00,,,0.00,WUHU216HW,2014-01-01 01:18:00,
2013-12-31 20:23:00,10.3,3.3,30.02,WNW,293,0.4,0.7,73,0.00,,,0.00,WUHU216HW,2014-01-01 01:23:00,
2013-12-31 20:28:00,10.3,3.3,30.02,WNW,293,0.0,0.4,73,0.00,,,0.00,WUHU216HW,2014-01-01 01:28:00,
2013-12-31 20:33:00,10.4,3.4,30.02,WNW,293,0.0,0.4,73,0.00,,,0.00,WUHU216HW,2014-01-01 01:33:00,
2013-12-31 20:38:00,10.4,3.4,30.02,WNW,293,0.2,1.1,73,0.00,,,0.00,WUHU216HW,2014-01-01 01:38:00,
2013-12-31 20:43:00,10.6,3.6,30.02,WNW,293,0.9,1.1,73,0.00,,,0.00,WUHU216HW,2014-01-01 01:43:00,
2013-12-31 20:48:00,11.2,4.4,30.02,WNW,293,0.5,1.1,74,0.00,,,0.00,WUHU216HW,2014-01-01 01:48:00,
2013-12-31 20:53:00,11.9,5.1,30.02,WNW,293,0.3,1.6,74,0.00,,,0.00,WUHU216HW,2014-01-01 01:53:00,
2013-12-31 20:58:00,12.1,5.3,30.02,WNW,293,1.8,4.0,74,0.00,,,0.00,WUHU216HW,2014-01-01 01:58:00,
2013-12-31 21:03:00,12.4,5.7,30.02,WNW,293,0.0,4.0,74,0.00,,,0.00,WUHU216HW,2014-01-01 02:03:00,
2013-12-31 21:08:00,12.8,6.0,30.02,WNW,293,0.4,1.8,74,0.00,,,0.00,WUHU216HW,2014-01-01 02:08:00,
2013-12-31 21:13:00,13.3,6.3,30.02,WNW,293,1.1,3.1,73,0.00,,,0.00,WUHU216HW,2014-01-01 02:13:00,
2013-12-31 21:18:00,13.7,6.7,30.02,WNW,293,0.5,3.1,73,0.00,,,0.00,WUHU216HW,2014-01-01 02:18:00,
2013-12-31 21:23:00,14.0,7.0,30.03,WNW,293,1.8,1.8,73,0.00,,,0.00,WUHU216HW,2014-01-01 02:23:00,
2013-12-31 21:28:00,14.6,7.5,30.03,WNW,293,0.8,1.8,73,0.00,,,0.00,WUHU216HW,2014-01-01 02:28:00,
2013-12-31 21:33:00,15.1,8.0,30.03,WNW,293,1.3,4.3,73,0.00,,,0.00,WUHU216HW,2014-01-01 02:33:00,
2013-12-31 21:38:00,15.3,8.2,30.03,WNW,293,2.0,4.3,73,0.00,,,0.00,WUHU216HW,2014-01-01 02:38:00,
2013-12-31 21:43:00,15.5,8.0,30.03,WNW,293,0.7,2.2,72,0.00,,,0.00,WUHU216HW,2014-01-01 02:43:00,
2013-12-31 21:48:00,15.3,7.8,30.03,WNW,293,0.4,2.2,72,0.00,,,0.00,WUHU216HW,2014-01-01 02:48:00,
2013-12-31 21:53:00,15.3,7.8,30.04,WNW,293,1.1,2.0,72,0.00,,,0.00,WUHU216HW,2014-01-01 02:53:00,
2013-12-31 21:58:00,15.5,8.0,30.04,WNW,293,0.6,2.0,72,0.00,,,0.00,WUHU216HW,2014-01-01 02:58:00,
2013-12-31 22:03:00,15.5,8.0,30.04,WNW,293,0.5,1.8,72,0.00,,,0.00,WUHU216HW,2014-01-01 03:03:00,
2013-12-31 22:08:00,15.5,8.0,30.04,WNW,293,0.4,2.2,72,0.00,,,0.00,WUHU216HW,2014-01-01 03:08:00,
2013-12-31 22:13:00,15.3,7.6,30.04,WNW,293,0.6,2.2,71,0.00,,,0.00,WUHU216HW,2014-01-01 03:13:00,
2013-12-31 22:18:00,15.3,7.6,30.05,WNW,293,0.4,1.1,71,0.00,,,0.00,WUHU216HW,2014-01-01 03:18:00,
2013-12-31 22:23:00,15.1,7.4,30.05,WNW,293,4.7,4.7,71,0.00,,,0.00,WUHU216HW,2014-01-01 03:23:00,
2013-12-31 22:28:00,15.1,7.4,30.05,WNW,293,1.8,4.7,71,0.00,,,0.00,WUHU216HW,2014-01-01 03:28:00,
2013-12-31 22:33:00,15.3,7.6,30.05,WNW,293,0.6,3.4,71,0.00,,,0.00,WUHU216HW,2014-01-01 03:33:00,
2013-12-31 22:38:00,15.3,7.6,30.06,WNW,293,0.4,3.4,71,0.00,,,0.00,WUHU216HW,2014-01-01 03:38:00,
2013-12-31 22:43:00,15.1,7.4,30.06,WNW,293,1.8,1.8,71,0.00,,,0.00,WUHU216HW,2014-01-01 03:43:00,
2013-12-31 22:48:00,15.3,7.6,30.06,WNW,293,0.6,1.8,71,0.00,,,0.00,WUHU216HW,2014-01-01 03:48:00,
2013-12-31 22:53:00,15.1,7.1,30.06,WNW,293,0.5,2.0,70,0.00,,,0.00,WUHU216HW,2014-01-01 03:53:00,
2013-12-31 22:58:00,15.1,7.4,30.06,WNW,293,1.2,2.2,71,0.00,,,0.00,WUHU216HW,2014-01-01 03:58:00,
2013-12-31 23:03:00,14.9,7.2,30.06,WNW,293,0.8,2.2,71,0.00,,,0.00,WUHU216HW,2014-01-01 04:03:00,
2013-12-31 23:08:00,14.9,7.2,30.06,WNW,293,0.4,1.3,71,0.00,,,0.00,WUHU216HW,2014-01-01 04:08:00,
2013-12-31 23:13:00,14.8,7.0,30.06,WNW,293,1.8,1.8,71,0.00,,,0.00,WUHU216HW,2014-01-01 04:13:00,
2013-12-31 23:18:00,14.6,6.9,30.06,WNW,293,0.8,1.8,71,0.00,,,0.00,WUHU216HW,2014-01-01 04:18:00,
2013-12-31 23:23:00,14.8,7.0,30.06,WNW,293,0.4,4.7,71,0.00,,,0.00,WUHU216HW,2014-01-01 04:23:00,
2013-12-31 23:28:00,14.6,6.9,30.07,WNW,293,1.1,4.7,71,0.00,,,0.00,WUHU216HW,2014-01-01 04:28:00,
2013-12-31 23:33:00,14.6,6.9,30.06,WNW,293,0.4,1.8,71,0.00,,,0.00,WUHU216HW,2014-01-01 04:33:00,
2013-12-31 23:38:00,14.6,6.9,30.07,WNW,293,1.8,3.6,71,0.00,,,0.00,WUHU216HW,2014-01-01 04:38:00,
2013-12-31 23:43:00,14.4,6.8,30.07,WNW,293,3.4,4.7,71,0.00,,,0.00,WUHU216HW,2014-01-01 04:43:00,
2013-12-31 23:48:00,14.4,6.8,30.07,WNW,293,1.1,4.7,71,0.00,,,0.00,WUHU216HW,2014-01-01 04:48:00,
2013-12-31 23:53:00,14.2,6.6,30.07,WNW,293,1.1,3.4,71,0.00,,,0.00,WUHU216HW,2014-01-01 04:53:00,
2013-12-31 23:58:00,14.0,6.1,30.07,WNW,293,0.5,1.3,70,0.00,,,0.00,WUHU216HW,2014-01-01 04:58:00,